sensor_id;sensor_type;location;lat;lon;timestamp;P1;durP1;ratioP1;P2;durP2;ratioP2
43919;SDS011;29578;51.946;5.874;2022-08-01T00:02:03;0.70;;;0.70;;
43919;SDS011;29578;51.946;5.874;2022-08-01T00:04:29;1.40;;;1.10;;
43919;SDS011;29578;51.946;5.874;2022-08-01T00:06:55;0.90;;;0.75;;
43919;SDS011;29578;51.946;5.874;2022-08-01T00:09:23;1.27;;;0.95;;
43919;SDS011;29578;51.946;5.874;2022-08-01T00:11:48;0.90;;;0.90;;
43919;SDS011;29578;51.946;5.874;2022-08-01T00:14:14;1.00;;;0.90;;
43919;SDS011;29578;51.946;5.874;2022-08-01T00:16:40;1.10;;;0.77;;
43919;SDS011;29578;51.946;5.874;2022-08-01T00:19:06;0.73;;;0.68;;
43919;SDS011;29578;51.946;5.874;2022-08-01T00:21:31;0.95;;;0.80;;
43919;SDS011;29578;51.946;5.874;2022-08-01T00:23:57;0.70;;;0.70;;
43919;SDS011;29578;51.946;5.874;2022-08-01T00:26:27;0.80;;;0.73;;
43919;SDS011;29578;51.946;5.874;2022-08-01T00:28:55;0.68;;;0.68;;
43919;SDS011;29578;51.946;5.874;2022-08-01T00:31:20;1.15;;;0.80;;
43919;SDS011;29578;51.946;5.874;2022-08-01T00:33:46;1.40;;;1.10;;
43919;SDS011;29578;51.946;5.874;2022-08-01T00:36:12;1.05;;;0.77;;
43919;SDS011;29578;51.946;5.874;2022-08-01T00:38:52;1.10;;;0.90;;
43919;SDS011;29578;51.946;5.874;2022-08-01T00:41:28;1.15;;;1.05;;
43919;SDS011;29578;51.946;5.874;2022-08-01T00:43:54;1.13;;;1.02;;
43919;SDS011;29578;51.946;5.874;2022-08-01T00:46:20;1.05;;;0.98;;
43919;SDS011;29578;51.946;5.874;2022-08-01T00:48:46;1.17;;;0.93;;
43919;SDS011;29578;51.946;5.874;2022-08-01T00:51:11;2.20;;;1.25;;
43919;SDS011;29578;51.946;5.874;2022-08-01T00:53:38;3.60;;;1.73;;
43919;SDS011;29578;51.946;5.874;2022-08-01T00:56:13;1.95;;;1.50;;
43919;SDS011;29578;51.946;5.874;2022-08-01T00:58:42;1.70;;;1.40;;
43919;SDS011;29578;51.946;5.874;2022-08-01T01:01:14;2.13;;;1.40;;
43919;SDS011;29578;51.946;5.874;2022-08-01T01:03:41;3.50;;;1.70;;
43919;SDS011;29578;51.946;5.874;2022-08-01T01:06:11;1.50;;;1.20;;
43919;SDS011;29578;51.946;5.874;2022-08-01T01:08:54;1.70;;;1.35;;
43919;SDS011;29578;51.946;5.874;2022-08-01T01:17:25;1.10;;;1.00;;
43919;SDS011;29578;51.946;5.874;2022-08-01T01:19:57;1.50;;;1.10;;
43919;SDS011;29578;51.946;5.874;2022-08-01T01:22:36;0.90;;;0.90;;
43919;SDS011;29578;51.946;5.874;2022-08-01T01:25:28;2.17;;;1.40;;
43919;SDS011;29578;51.946;5.874;2022-08-01T01:31:07;3.22;;;1.30;;
43919;SDS011;29578;51.946;5.874;2022-08-01T01:33:37;1.40;;;1.20;;
43919;SDS011;29578;51.946;5.874;2022-08-01T01:36:07;2.22;;;1.40;;
43919;SDS011;29578;51.946;5.874;2022-08-01T01:38:39;1.70;;;1.30;;
43919;SDS011;29578;51.946;5.874;2022-08-01T01:41:08;1.25;;;0.88;;
43919;SDS011;29578;51.946;5.874;2022-08-01T01:43:36;1.63;;;1.10;;
43919;SDS011;29578;51.946;5.874;2022-08-01T01:46:05;0.95;;;0.85;;
43919;SDS011;29578;51.946;5.874;2022-08-01T01:48:34;1.58;;;1.20;;
43919;SDS011;29578;51.946;5.874;2022-08-01T01:51:01;0.70;;;0.70;;
43919;SDS011;29578;51.946;5.874;2022-08-01T01:53:28;1.08;;;0.85;;
43919;SDS011;29578;51.946;5.874;2022-08-01T01:55:57;1.00;;;0.70;;
43919;SDS011;29578;51.946;5.874;2022-08-01T01:58:24;1.35;;;0.93;;
43919;SDS011;29578;51.946;5.874;2022-08-01T02:00:52;1.13;;;1.00;;
43919;SDS011;29578;51.946;5.874;2022-08-01T02:03:21;1.85;;;1.17;;
43919;SDS011;29578;51.946;5.874;2022-08-01T02:05:49;1.15;;;0.70;;
43919;SDS011;29578;51.946;5.874;2022-08-01T02:08:17;1.92;;;1.17;;
43919;SDS011;29578;51.946;5.874;2022-08-01T02:10:42;1.73;;;1.30;;
43919;SDS011;29578;51.946;5.874;2022-08-01T02:13:31;2.03;;;1.40;;
43919;SDS011;29578;51.946;5.874;2022-08-01T02:16:00;2.45;;;1.17;;
43919;SDS011;29578;51.946;5.874;2022-08-01T02:18:27;1.85;;;1.00;;
43919;SDS011;29578;51.946;5.874;2022-08-01T02:20:54;1.40;;;1.05;;
43919;SDS011;29578;51.946;5.874;2022-08-01T02:23:21;2.10;;;1.10;;
43919;SDS011;29578;51.946;5.874;2022-08-01T02:25:54;1.83;;;1.02;;
43919;SDS011;29578;51.946;5.874;2022-08-01T02:28:24;1.17;;;0.90;;
43919;SDS011;29578;51.946;5.874;2022-08-01T02:30:54;1.98;;;1.00;;
43919;SDS011;29578;51.946;5.874;2022-08-01T02:33:30;1.60;;;0.98;;
43919;SDS011;29578;51.946;5.874;2022-08-01T02:36:04;1.23;;;0.82;;
43919;SDS011;29578;51.946;5.874;2022-08-01T02:38:32;1.02;;;0.80;;
43919;SDS011;29578;51.946;5.874;2022-08-01T02:41:03;2.47;;;1.15;;
43919;SDS011;29578;51.946;5.874;2022-08-01T02:43:34;1.40;;;0.85;;
43919;SDS011;29578;51.946;5.874;2022-08-01T02:46:04;1.77;;;1.10;;
43919;SDS011;29578;51.946;5.874;2022-08-01T02:48:33;1.48;;;1.10;;
43919;SDS011;29578;51.946;5.874;2022-08-01T02:51:02;0.98;;;0.77;;
43919;SDS011;29578;51.946;5.874;2022-08-01T02:53:31;1.05;;;0.57;;
43919;SDS011;29578;51.946;5.874;2022-08-01T02:56:02;0.80;;;0.70;;
43919;SDS011;29578;51.946;5.874;2022-08-01T02:58:30;1.58;;;0.90;;
43919;SDS011;29578;51.946;5.874;2022-08-01T03:00:58;1.15;;;0.80;;
43919;SDS011;29578;51.946;5.874;2022-08-01T03:03:24;0.90;;;0.57;;
43919;SDS011;29578;51.946;5.874;2022-08-01T03:05:50;0.80;;;0.65;;
43919;SDS011;29578;51.946;5.874;2022-08-01T03:08:17;0.68;;;0.68;;
43919;SDS011;29578;51.946;5.874;2022-08-01T03:10:45;1.83;;;1.20;;
43919;SDS011;29578;51.946;5.874;2022-08-01T03:13:12;1.48;;;0.88;;
43919;SDS011;29578;51.946;5.874;2022-08-01T03:15:39;1.17;;;0.70;;
43919;SDS011;29578;51.946;5.874;2022-08-01T03:18:08;0.98;;;0.80;;
43919;SDS011;29578;51.946;5.874;2022-08-01T03:20:35;0.55;;;0.50;;
43919;SDS011;29578;51.946;5.874;2022-08-01T03:23:03;1.00;;;0.80;;
43919;SDS011;29578;51.946;5.874;2022-08-01T03:25:32;1.25;;;0.77;;
43919;SDS011;29578;51.946;5.874;2022-08-01T03:28:02;0.95;;;0.82;;
43919;SDS011;29578;51.946;5.874;2022-08-01T03:30:29;0.70;;;0.70;;
43919;SDS011;29578;51.946;5.874;2022-08-01T03:32:57;0.75;;;0.60;;
43919;SDS011;29578;51.946;5.874;2022-08-01T03:35:25;1.67;;;0.70;;
43919;SDS011;29578;51.946;5.874;2022-08-01T03:37:55;1.10;;;0.80;;
43919;SDS011;29578;51.946;5.874;2022-08-01T03:40:25;0.82;;;0.70;;
43919;SDS011;29578;51.946;5.874;2022-08-01T03:42:58;0.40;;;0.40;;
43919;SDS011;29578;51.946;5.874;2022-08-01T03:45:30;0.98;;;0.60;;
43919;SDS011;29578;51.946;5.874;2022-08-01T03:48:00;1.13;;;0.70;;
43919;SDS011;29578;51.946;5.874;2022-08-01T03:50:29;1.02;;;0.68;;
43919;SDS011;29578;51.946;5.874;2022-08-01T03:52:59;0.57;;;0.57;;
43919;SDS011;29578;51.946;5.874;2022-08-01T03:55:27;0.80;;;0.70;;
43919;SDS011;29578;51.946;5.874;2022-08-01T03:57:55;1.20;;;0.77;;
43919;SDS011;29578;51.946;5.874;2022-08-01T04:00:21;0.50;;;0.50;;
43919;SDS011;29578;51.946;5.874;2022-08-01T04:02:49;0.85;;;0.65;;
43919;SDS011;29578;51.946;5.874;2022-08-01T04:05:16;0.50;;;0.50;;
43919;SDS011;29578;51.946;5.874;2022-08-01T04:07:47;1.13;;;0.68;;
43919;SDS011;29578;51.946;5.874;2022-08-01T04:10:20;0.73;;;0.73;;
43919;SDS011;29578;51.946;5.874;2022-08-01T04:12:47;0.73;;;0.63;;
43919;SDS011;29578;51.946;5.874;2022-08-01T04:15:13;1.65;;;0.63;;
43919;SDS011;29578;51.946;5.874;2022-08-01T04:17:39;0.50;;;0.50;;
43919;SDS011;29578;51.946;5.874;2022-08-01T04:20:05;1.00;;;0.68;;
43919;SDS011;29578;51.946;5.874;2022-08-01T04:22:31;1.00;;;0.80;;
43919;SDS011;29578;51.946;5.874;2022-08-01T04:24:57;0.90;;;0.57;;
43919;SDS011;29578;51.946;5.874;2022-08-01T04:27:29;0.60;;;0.60;;
43919;SDS011;29578;51.946;5.874;2022-08-01T04:29:59;2.13;;;1.02;;
43919;SDS011;29578;51.946;5.874;2022-08-01T04:32:27;0.82;;;0.77;;
43919;SDS011;29578;51.946;5.874;2022-08-01T04:34:56;0.63;;;0.60;;
43919;SDS011;29578;51.946;5.874;2022-08-01T04:37:25;1.75;;;0.73;;
43919;SDS011;29578;51.946;5.874;2022-08-01T04:39:52;0.75;;;0.70;;
43919;SDS011;29578;51.946;5.874;2022-08-01T04:42:20;1.17;;;0.68;;
43919;SDS011;29578;51.946;5.874;2022-08-01T04:44:46;0.95;;;0.70;;
43919;SDS011;29578;51.946;5.874;2022-08-01T04:47:12;0.70;;;0.70;;
43919;SDS011;29578;51.946;5.874;2022-08-01T04:49:39;0.55;;;0.50;;
43919;SDS011;29578;51.946;5.874;2022-08-01T04:52:05;0.93;;;0.60;;
43919;SDS011;29578;51.946;5.874;2022-08-01T04:54:32;1.13;;;0.73;;
43919;SDS011;29578;51.946;5.874;2022-08-01T04:57:02;0.50;;;0.50;;
43919;SDS011;29578;51.946;5.874;2022-08-01T04:59:30;0.40;;;0.40;;
43919;SDS011;29578;51.946;5.874;2022-08-01T05:02:04;0.73;;;0.57;;
43919;SDS011;29578;51.946;5.874;2022-08-01T05:04:40;0.93;;;0.70;;
43919;SDS011;29578;51.946;5.874;2022-08-01T05:07:07;0.70;;;0.70;;
43919;SDS011;29578;51.946;5.874;2022-08-01T05:09:34;0.80;;;0.73;;
43919;SDS011;29578;51.946;5.874;2022-08-01T05:12:02;0.90;;;0.68;;
43919;SDS011;29578;51.946;5.874;2022-08-01T05:14:29;0.93;;;0.80;;
43919;SDS011;29578;51.946;5.874;2022-08-01T05:16:59;0.68;;;0.60;;
43919;SDS011;29578;51.946;5.874;2022-08-01T05:19:29;0.67;;;0.67;;
43919;SDS011;29578;51.946;5.874;2022-08-01T05:21:57;0.70;;;0.68;;
43919;SDS011;29578;51.946;5.874;2022-08-01T05:24:23;0.60;;;0.60;;
43919;SDS011;29578;51.946;5.874;2022-08-01T05:26:49;0.80;;;0.60;;
43919;SDS011;29578;51.946;5.874;2022-08-01T05:29:15;0.57;;;0.57;;
43919;SDS011;29578;51.946;5.874;2022-08-01T05:31:41;0.80;;;0.60;;
43919;SDS011;29578;51.946;5.874;2022-08-01T05:34:07;0.52;;;0.50;;
43919;SDS011;29578;51.946;5.874;2022-08-01T05:36:32;0.55;;;0.35;;
43919;SDS011;29578;51.946;5.874;2022-08-01T05:38:58;0.50;;;0.50;;
43919;SDS011;29578;51.946;5.874;2022-08-01T05:41:24;0.82;;;0.60;;
43919;SDS011;29578;51.946;5.874;2022-08-01T05:43:50;0.45;;;0.38;;
43919;SDS011;29578;51.946;5.874;2022-08-01T05:46:15;0.63;;;0.50;;
43919;SDS011;29578;51.946;5.874;2022-08-01T05:48:41;0.55;;;0.52;;
43919;SDS011;29578;51.946;5.874;2022-08-01T05:51:07;0.93;;;0.60;;
43919;SDS011;29578;51.946;5.874;2022-08-01T05:53:33;0.40;;;0.40;;
43919;SDS011;29578;51.946;5.874;2022-08-01T05:55:59;0.60;;;0.60;;
43919;SDS011;29578;51.946;5.874;2022-08-01T05:58:26;0.88;;;0.70;;
43919;SDS011;29578;51.946;5.874;2022-08-01T06:00:52;0.50;;;0.40;;
43919;SDS011;29578;51.946;5.874;2022-08-01T06:03:18;1.02;;;0.50;;
43919;SDS011;29578;51.946;5.874;2022-08-01T06:05:44;0.52;;;0.52;;
43919;SDS011;29578;51.946;5.874;2022-08-01T06:08:10;0.98;;;0.88;;
43919;SDS011;29578;51.946;5.874;2022-08-01T06:10:36;0.63;;;0.63;;
43919;SDS011;29578;51.946;5.874;2022-08-01T06:13:01;0.47;;;0.47;;
43919;SDS011;29578;51.946;5.874;2022-08-01T06:15:28;0.40;;;0.40;;
43919;SDS011;29578;51.946;5.874;2022-08-01T06:17:55;0.68;;;0.52;;
43919;SDS011;29578;51.946;5.874;2022-08-01T06:20:21;0.40;;;0.40;;
43919;SDS011;29578;51.946;5.874;2022-08-01T06:22:46;0.50;;;0.50;;
43919;SDS011;29578;51.946;5.874;2022-08-01T06:25:12;0.40;;;0.40;;
43919;SDS011;29578;51.946;5.874;2022-08-01T06:27:38;0.52;;;0.40;;
43919;SDS011;29578;51.946;5.874;2022-08-01T06:30:04;0.57;;;0.30;;
43919;SDS011;29578;51.946;5.874;2022-08-01T06:32:32;0.20;;;0.20;;
43919;SDS011;29578;51.946;5.874;2022-08-01T06:34:58;0.30;;;0.30;;
43919;SDS011;29578;51.946;5.874;2022-08-01T06:37:28;0.30;;;0.30;;
43919;SDS011;29578;51.946;5.874;2022-08-01T06:39:55;0.38;;;0.38;;
43919;SDS011;29578;51.946;5.874;2022-08-01T06:42:21;0.30;;;0.30;;
43919;SDS011;29578;51.946;5.874;2022-08-01T06:44:47;0.20;;;0.20;;
43919;SDS011;29578;51.946;5.874;2022-08-01T06:47:12;0.22;;;0.20;;
43919;SDS011;29578;51.946;5.874;2022-08-01T06:49:38;0.28;;;0.28;;
43919;SDS011;29578;51.946;5.874;2022-08-01T06:52:04;0.20;;;0.20;;
43919;SDS011;29578;51.946;5.874;2022-08-01T06:54:30;0.30;;;0.30;;
43919;SDS011;29578;51.946;5.874;2022-08-01T06:56:55;0.20;;;0.20;;
43919;SDS011;29578;51.946;5.874;2022-08-01T06:59:21;0.30;;;0.30;;
43919;SDS011;29578;51.946;5.874;2022-08-01T07:01:47;0.25;;;0.25;;
43919;SDS011;29578;51.946;5.874;2022-08-01T07:04:12;0.30;;;0.30;;
43919;SDS011;29578;51.946;5.874;2022-08-01T07:06:38;0.20;;;0.20;;
43919;SDS011;29578;51.946;5.874;2022-08-01T07:09:10;0.45;;;0.30;;
43919;SDS011;29578;51.946;5.874;2022-08-01T07:51:25;0.20;;;0.20;;
43919;SDS011;29578;51.946;5.874;2022-08-01T08:01:19;0.40;;;0.30;;
43919;SDS011;29578;51.946;5.874;2022-08-01T08:04:10;0.47;;;0.20;;
43919;SDS011;29578;51.946;5.874;2022-08-01T08:09:43;0.20;;;0.20;;
43919;SDS011;29578;51.946;5.874;2022-08-01T08:12:13;0.17;;;0.17;;
43919;SDS011;29578;51.946;5.874;2022-08-01T08:29:06;0.47;;;0.30;;
43919;SDS011;29578;51.946;5.874;2022-08-01T08:31:32;0.20;;;0.20;;
43919;SDS011;29578;51.946;5.874;2022-08-01T08:34:18;0.20;;;0.20;;
43919;SDS011;29578;51.946;5.874;2022-08-01T08:47:36;0.35;;;0.20;;
43919;SDS011;29578;51.946;5.874;2022-08-01T09:04:28;1.00;;;0.30;;
43919;SDS011;29578;51.946;5.874;2022-08-01T09:07:17;0.30;;;0.30;;
43919;SDS011;29578;51.946;5.874;2022-08-01T09:13:38;0.25;;;0.25;;
43919;SDS011;29578;51.946;5.874;2022-08-01T09:16:42;0.10;;;0.10;;
43919;SDS011;29578;51.946;5.874;2022-08-01T09:22:07;0.32;;;0.30;;
43919;SDS011;29578;51.946;5.874;2022-08-01T09:24:37;0.30;;;0.30;;
43919;SDS011;29578;51.946;5.874;2022-08-01T09:31:04;0.30;;;0.30;;
43919;SDS011;29578;51.946;5.874;2022-08-01T09:37:06;0.20;;;0.20;;
43919;SDS011;29578;51.946;5.874;2022-08-01T09:39:34;0.40;;;0.40;;
43919;SDS011;29578;51.946;5.874;2022-08-01T09:42:18;0.20;;;0.20;;
43919;SDS011;29578;51.946;5.874;2022-08-01T09:44:48;0.10;;;0.10;;
43919;SDS011;29578;51.946;5.874;2022-08-01T09:47:15;0.30;;;0.30;;
43919;SDS011;29578;51.946;5.874;2022-08-01T09:49:42;0.30;;;0.30;;
43919;SDS011;29578;51.946;5.874;2022-08-01T09:52:13;0.40;;;0.20;;
43919;SDS011;29578;51.946;5.874;2022-08-01T09:54:43;0.47;;;0.32;;
43919;SDS011;29578;51.946;5.874;2022-08-01T09:57:23;0.40;;;0.28;;
43919;SDS011;29578;51.946;5.874;2022-08-01T09:59:50;0.20;;;0.20;;
43919;SDS011;29578;51.946;5.874;2022-08-01T10:04:59;0.25;;;0.25;;
43919;SDS011;29578;51.946;5.874;2022-08-01T10:07:27;0.30;;;0.30;;
43919;SDS011;29578;51.946;5.874;2022-08-01T10:09:53;0.43;;;0.43;;
43919;SDS011;29578;51.946;5.874;2022-08-01T10:12:19;0.32;;;0.32;;
43919;SDS011;29578;51.946;5.874;2022-08-01T10:14:48;0.43;;;0.40;;
43919;SDS011;29578;51.946;5.874;2022-08-01T10:17:15;0.60;;;0.30;;
43919;SDS011;29578;51.946;5.874;2022-08-01T10:19:43;0.80;;;0.43;;
43919;SDS011;29578;51.946;5.874;2022-08-01T10:22:10;1.38;;;0.68;;
43919;SDS011;29578;51.946;5.874;2022-08-01T10:24:42;0.63;;;0.38;;
43919;SDS011;29578;51.946;5.874;2022-08-01T10:27:10;1.02;;;0.60;;
43919;SDS011;29578;51.946;5.874;2022-08-01T10:29:38;0.47;;;0.47;;
43919;SDS011;29578;51.946;5.874;2022-08-01T10:32:08;0.50;;;0.50;;
43919;SDS011;29578;51.946;5.874;2022-08-01T10:34:35;0.73;;;0.60;;
43919;SDS011;29578;51.946;5.874;2022-08-01T10:37:02;0.70;;;0.55;;
43919;SDS011;29578;51.946;5.874;2022-08-01T10:39:30;0.75;;;0.50;;
43919;SDS011;29578;51.946;5.874;2022-08-01T10:41:57;0.50;;;0.50;;
43919;SDS011;29578;51.946;5.874;2022-08-01T10:44:24;0.40;;;0.40;;
43919;SDS011;29578;51.946;5.874;2022-08-01T10:46:53;0.50;;;0.50;;
43919;SDS011;29578;51.946;5.874;2022-08-01T10:49:26;0.43;;;0.43;;
43919;SDS011;29578;51.946;5.874;2022-08-01T10:51:55;0.80;;;0.55;;
43919;SDS011;29578;51.946;5.874;2022-08-01T10:54:24;1.27;;;0.77;;
43919;SDS011;29578;51.946;5.874;2022-08-01T10:56:51;2.03;;;0.60;;
43919;SDS011;29578;51.946;5.874;2022-08-01T11:13:00;1.13;;;0.43;;
43919;SDS011;29578;51.946;5.874;2022-08-01T11:19:09;0.50;;;0.50;;
43919;SDS011;29578;51.946;5.874;2022-08-01T12:29:41;0.90;;;0.60;;
43919;SDS011;29578;51.946;5.874;2022-08-01T12:32:31;1.17;;;0.60;;
43919;SDS011;29578;51.946;5.874;2022-08-01T12:35:12;0.40;;;0.40;;
43919;SDS011;29578;51.946;5.874;2022-08-01T13:10:10;0.60;;;0.60;;
43919;SDS011;29578;51.946;5.874;2022-08-01T13:12:41;1.05;;;0.47;;
43919;SDS011;29578;51.946;5.874;2022-08-01T15:50:36;0.88;;;0.47;;
43919;SDS011;29578;51.946;5.874;2022-08-01T15:53:03;0.45;;;0.43;;
43919;SDS011;29578;51.946;5.874;2022-08-01T16:21:13;0.52;;;0.30;;
43919;SDS011;29578;51.946;5.874;2022-08-01T16:23:39;0.22;;;0.22;;
43919;SDS011;29578;51.946;5.874;2022-08-01T16:26:06;0.43;;;0.40;;
43919;SDS011;29578;51.946;5.874;2022-08-01T16:29:03;0.65;;;0.38;;
43919;SDS011;29578;51.946;5.874;2022-08-01T16:38:09;0.45;;;0.43;;
43919;SDS011;29578;51.946;5.874;2022-08-01T16:40:45;0.60;;;0.40;;
43919;SDS011;29578;51.946;5.874;2022-08-01T16:43:14;0.30;;;0.30;;
43919;SDS011;29578;51.946;5.874;2022-08-01T16:45:41;0.35;;;0.35;;
43919;SDS011;29578;51.946;5.874;2022-08-01T16:48:07;0.22;;;0.20;;
43919;SDS011;29578;51.946;5.874;2022-08-01T16:50:34;0.57;;;0.45;;
43919;SDS011;29578;51.946;5.874;2022-08-01T16:53:00;0.45;;;0.30;;
43919;SDS011;29578;51.946;5.874;2022-08-01T16:55:26;0.50;;;0.50;;
43919;SDS011;29578;51.946;5.874;2022-08-01T16:57:52;0.20;;;0.20;;
43919;SDS011;29578;51.946;5.874;2022-08-01T17:00:18;0.70;;;0.50;;
43919;SDS011;29578;51.946;5.874;2022-08-01T17:02:44;0.47;;;0.30;;
43919;SDS011;29578;51.946;5.874;2022-08-01T17:05:10;0.30;;;0.30;;
43919;SDS011;29578;51.946;5.874;2022-08-01T17:07:36;1.20;;;0.30;;
43919;SDS011;29578;51.946;5.874;2022-08-01T17:10:02;0.20;;;0.20;;
43919;SDS011;29578;51.946;5.874;2022-08-01T17:12:29;0.55;;;0.20;;
43919;SDS011;29578;51.946;5.874;2022-08-01T17:14:56;0.60;;;0.40;;
43919;SDS011;29578;51.946;5.874;2022-08-01T17:17:22;0.28;;;0.28;;
43919;SDS011;29578;51.946;5.874;2022-08-01T17:19:49;0.32;;;0.20;;
43919;SDS011;29578;51.946;5.874;2022-08-01T17:22:16;0.40;;;0.40;;
43919;SDS011;29578;51.946;5.874;2022-08-01T17:24:42;0.88;;;0.40;;
43919;SDS011;29578;51.946;5.874;2022-08-01T17:27:08;0.47;;;0.40;;
43919;SDS011;29578;51.946;5.874;2022-08-01T17:29:34;0.20;;;0.20;;
43919;SDS011;29578;51.946;5.874;2022-08-01T17:32:00;0.75;;;0.20;;
43919;SDS011;29578;51.946;5.874;2022-08-01T17:34:26;1.27;;;0.20;;
43919;SDS011;29578;51.946;5.874;2022-08-01T17:36:51;0.50;;;0.35;;
43919;SDS011;29578;51.946;5.874;2022-08-01T17:39:18;0.98;;;0.30;;
43919;SDS011;29578;51.946;5.874;2022-08-01T17:41:44;0.40;;;0.30;;
43919;SDS011;29578;51.946;5.874;2022-08-01T17:44:10;0.82;;;0.20;;
43919;SDS011;29578;51.946;5.874;2022-08-01T17:46:35;0.73;;;0.22;;
43919;SDS011;29578;51.946;5.874;2022-08-01T17:49:02;1.98;;;0.38;;
43919;SDS011;29578;51.946;5.874;2022-08-01T17:51:28;0.57;;;0.40;;
43919;SDS011;29578;51.946;5.874;2022-08-01T17:53:54;0.20;;;0.20;;
43919;SDS011;29578;51.946;5.874;2022-08-01T17:56:20;0.20;;;0.20;;
43919;SDS011;29578;51.946;5.874;2022-08-01T17:58:46;0.20;;;0.20;;
43919;SDS011;29578;51.946;5.874;2022-08-01T18:01:12;0.30;;;0.30;;
43919;SDS011;29578;51.946;5.874;2022-08-01T18:03:39;0.20;;;0.20;;
43919;SDS011;29578;51.946;5.874;2022-08-01T18:06:05;0.28;;;0.28;;
43919;SDS011;29578;51.946;5.874;2022-08-01T18:08:31;0.20;;;0.20;;
43919;SDS011;29578;51.946;5.874;2022-08-01T18:10:57;0.52;;;0.30;;
43919;SDS011;29578;51.946;5.874;2022-08-01T18:13:23;0.20;;;0.20;;
43919;SDS011;29578;51.946;5.874;2022-08-01T18:15:50;0.40;;;0.32;;
43919;SDS011;29578;51.946;5.874;2022-08-01T18:18:15;0.20;;;0.20;;
43919;SDS011;29578;51.946;5.874;2022-08-01T18:20:44;0.30;;;0.30;;
43919;SDS011;29578;51.946;5.874;2022-08-01T18:23:11;0.20;;;0.20;;
43919;SDS011;29578;51.946;5.874;2022-08-01T18:25:37;0.22;;;0.22;;
43919;SDS011;29578;51.946;5.874;2022-08-01T18:28:03;0.20;;;0.20;;
43919;SDS011;29578;51.946;5.874;2022-08-01T18:30:30;1.00;;;0.20;;
43919;SDS011;29578;51.946;5.874;2022-08-01T18:32:56;0.95;;;0.30;;
43919;SDS011;29578;51.946;5.874;2022-08-01T18:35:22;0.88;;;0.30;;
43919;SDS011;29578;51.946;5.874;2022-08-01T18:37:49;0.20;;;0.20;;
43919;SDS011;29578;51.946;5.874;2022-08-01T18:40:15;0.10;;;0.10;;
43919;SDS011;29578;51.946;5.874;2022-08-01T18:42:40;0.20;;;0.20;;
43919;SDS011;29578;51.946;5.874;2022-08-01T18:45:06;0.20;;;0.20;;
43919;SDS011;29578;51.946;5.874;2022-08-01T18:47:33;0.20;;;0.20;;
43919;SDS011;29578;51.946;5.874;2022-08-01T18:49:59;0.30;;;0.30;;
43919;SDS011;29578;51.946;5.874;2022-08-01T18:52:25;0.13;;;0.13;;
43919;SDS011;29578;51.946;5.874;2022-08-01T18:54:52;0.20;;;0.20;;
43919;SDS011;29578;51.946;5.874;2022-08-01T18:57:18;0.57;;;0.20;;
43919;SDS011;29578;51.946;5.874;2022-08-01T18:59:44;0.10;;;0.10;;
43919;SDS011;29578;51.946;5.874;2022-08-01T19:02:10;0.40;;;0.20;;
43919;SDS011;29578;51.946;5.874;2022-08-01T19:04:37;0.32;;;0.20;;
43919;SDS011;29578;51.946;5.874;2022-08-01T19:07:03;0.20;;;0.20;;
43919;SDS011;29578;51.946;5.874;2022-08-01T19:09:29;0.17;;;0.17;;
43919;SDS011;29578;51.946;5.874;2022-08-01T19:11:55;0.10;;;0.10;;
43919;SDS011;29578;51.946;5.874;2022-08-01T19:14:20;0.13;;;0.13;;
43919;SDS011;29578;51.946;5.874;2022-08-01T19:16:46;0.20;;;0.20;;
43919;SDS011;29578;51.946;5.874;2022-08-01T19:19:12;0.10;;;0.10;;
43919;SDS011;29578;51.946;5.874;2022-08-01T19:21:38;0.20;;;0.20;;
43919;SDS011;29578;51.946;5.874;2022-08-01T19:24:05;0.20;;;0.20;;
43919;SDS011;29578;51.946;5.874;2022-08-01T19:26:50;0.20;;;0.20;;
43919;SDS011;29578;51.946;5.874;2022-08-01T19:29:19;0.10;;;0.10;;
43919;SDS011;29578;51.946;5.874;2022-08-01T19:31:47;0.32;;;0.30;;
43919;SDS011;29578;51.946;5.874;2022-08-01T19:34:14;0.20;;;0.20;;
43919;SDS011;29578;51.946;5.874;2022-08-01T19:36:42;0.10;;;0.10;;
43919;SDS011;29578;51.946;5.874;2022-08-01T19:39:11;0.25;;;0.25;;
43919;SDS011;29578;51.946;5.874;2022-08-01T19:41:41;0.10;;;0.10;;
43919;SDS011;29578;51.946;5.874;2022-08-01T19:44:10;0.17;;;0.17;;
43919;SDS011;29578;51.946;5.874;2022-08-01T19:46:38;0.20;;;0.20;;
43919;SDS011;29578;51.946;5.874;2022-08-01T19:49:04;0.20;;;0.20;;
43919;SDS011;29578;51.946;5.874;2022-08-01T19:51:30;0.15;;;0.15;;
43919;SDS011;29578;51.946;5.874;2022-08-01T19:54:03;0.20;;;0.20;;
43919;SDS011;29578;51.946;5.874;2022-08-01T19:56:34;0.10;;;0.10;;
43919;SDS011;29578;51.946;5.874;2022-08-01T19:59:04;0.15;;;0.13;;
43919;SDS011;29578;51.946;5.874;2022-08-01T20:01:32;0.20;;;0.20;;
43919;SDS011;29578;51.946;5.874;2022-08-01T20:04:00;0.20;;;0.15;;
43919;SDS011;29578;51.946;5.874;2022-08-01T20:06:33;0.10;;;0.10;;
43919;SDS011;29578;51.946;5.874;2022-08-01T20:09:00;0.25;;;0.17;;
43919;SDS011;29578;51.946;5.874;2022-08-01T20:11:26;0.22;;;0.13;;
43919;SDS011;29578;51.946;5.874;2022-08-01T20:13:53;0.10;;;0.10;;
43919;SDS011;29578;51.946;5.874;2022-08-01T20:16:21;0.32;;;0.20;;
43919;SDS011;29578;51.946;5.874;2022-08-01T20:18:47;0.10;;;0.10;;
43919;SDS011;29578;51.946;5.874;2022-08-01T20:21:16;0.22;;;0.20;;
43919;SDS011;29578;51.946;5.874;2022-08-01T20:31:25;0.20;;;0.20;;
43919;SDS011;29578;51.946;5.874;2022-08-01T20:55:25;0.17;;;0.10;;
43919;SDS011;29578;51.946;5.874;2022-08-01T20:58:33;0.10;;;0.10;;
43919;SDS011;29578;51.946;5.874;2022-08-01T21:01:48;0.28;;;0.28;;
43919;SDS011;29578;51.946;5.874;2022-08-01T21:11:50;0.20;;;0.10;;
43919;SDS011;29578;51.946;5.874;2022-08-01T21:18:24;0.20;;;0.20;;
43919;SDS011;29578;51.946;5.874;2022-08-01T21:21:21;0.30;;;0.30;;
43919;SDS011;29578;51.946;5.874;2022-08-01T21:23:59;0.20;;;0.20;;
43919;SDS011;29578;51.946;5.874;2022-08-01T21:27:04;0.20;;;0.20;;
43919;SDS011;29578;51.946;5.874;2022-08-01T21:29:44;0.47;;;0.30;;
43919;SDS011;29578;51.946;5.874;2022-08-01T21:32:13;0.10;;;0.10;;
43919;SDS011;29578;51.946;5.874;2022-08-01T21:35:06;0.10;;;0.10;;
43919;SDS011;29578;51.946;5.874;2022-08-01T21:37:43;0.10;;;0.10;;
43919;SDS011;29578;51.946;5.874;2022-08-01T21:47:35;0.20;;;0.20;;
43919;SDS011;29578;51.946;5.874;2022-08-01T21:50:03;0.32;;;0.20;;
43919;SDS011;29578;51.946;5.874;2022-08-01T21:53:01;0.20;;;0.20;;
43919;SDS011;29578;51.946;5.874;2022-08-01T21:55:36;0.20;;;0.20;;
43919;SDS011;29578;51.946;5.874;2022-08-01T21:58:17;0.30;;;0.22;;
43919;SDS011;29578;51.946;5.874;2022-08-01T22:08:23;0.20;;;0.20;;
43919;SDS011;29578;51.946;5.874;2022-08-01T22:11:03;0.20;;;0.20;;
43919;SDS011;29578;51.946;5.874;2022-08-01T22:21:41;0.20;;;0.20;;
43919;SDS011;29578;51.946;5.874;2022-08-01T22:41:47;0.20;;;0.20;;
43919;SDS011;29578;51.946;5.874;2022-08-01T22:52:03;0.20;;;0.20;;
43919;SDS011;29578;51.946;5.874;2022-08-01T22:55:04;0.20;;;0.20;;
43919;SDS011;29578;51.946;5.874;2022-08-01T22:57:42;0.25;;;0.20;;
43919;SDS011;29578;51.946;5.874;2022-08-01T23:04:19;0.57;;;0.30;;
43919;SDS011;29578;51.946;5.874;2022-08-01T23:07:22;0.20;;;0.20;;
43919;SDS011;29578;51.946;5.874;2022-08-01T23:16:37;0.20;;;0.20;;
43919;SDS011;29578;51.946;5.874;2022-08-01T23:19:05;0.45;;;0.20;;
43919;SDS011;29578;51.946;5.874;2022-08-01T23:21:33;0.10;;;0.10;;
43919;SDS011;29578;51.946;5.874;2022-08-01T23:24:00;0.20;;;0.20;;
43919;SDS011;29578;51.946;5.874;2022-08-01T23:26:28;0.30;;;0.30;;
43919;SDS011;29578;51.946;5.874;2022-08-01T23:28:56;0.30;;;0.30;;
43919;SDS011;29578;51.946;5.874;2022-08-01T23:31:22;0.20;;;0.20;;
43919;SDS011;29578;51.946;5.874;2022-08-01T23:33:50;0.20;;;0.20;;
43919;SDS011;29578;51.946;5.874;2022-08-01T23:36:16;0.50;;;0.20;;
43919;SDS011;29578;51.946;5.874;2022-08-01T23:38:43;0.52;;;0.30;;
43919;SDS011;29578;51.946;5.874;2022-08-01T23:41:09;0.65;;;0.35;;
43919;SDS011;29578;51.946;5.874;2022-08-01T23:43:39;0.52;;;0.30;;